Time;durP1;ratioP1;P1;durP2;ratioP2;P2;SDS_P1;SDS_P2;PMS_P1;PMS_P2;Temp;Humidity;BMP_temperature;BMP_pressure;BME280_temperature;BME280_humidity;BME280_pressure;Samples;Min_cycle;Max_cycle;Signal;HPM_P1;HPM_P2
2022/01/17 00:01:15;;;;;;;105.30;47.45;;;;;;;5.14;100.00;103020.38;5115351;28;20031;-64
2022/01/17 00:03:40;;;;;;;108.75;46.88;;;;;;;5.12;100.00;103020.31;5115031;28;20047;-66
2022/01/17 00:06:05;;;;;;;101.60;46.53;;;;;;;5.09;100.00;103014.97;5115304;28;20035;-65
2022/01/17 00:08:31;;;;;;;108.00;47.33;;;;;;;5.13;100.00;103028.97;5115321;28;20036;-65
2022/01/17 00:10:56;;;;;;;95.60;46.70;;;;;;;5.13;100.00;103031.56;5115450;28;20067;-63
2022/01/17 00:13:25;;;;;;;107.88;46.53;;;;;;;5.16;100.00;103048.19;5115377;28;20038;-64
2022/01/17 00:15:56;;;;;;;102.00;46.63;;;;;;;5.17;100.00;103042.16;5114973;28;20135;-62
2022/01/17 00:20:47;;;;;;;93.45;44.58;;;;;;;5.16;100.00;103039.50;5119765;28;20043;-65
2022/01/17 00:23:16;;;;;;;100.95;46.03;;;;;;;5.19;100.00;103047.44;5119521;28;20045;-63
2022/01/17 00:25:42;;;;;;;89.70;43.97;;;;;;;5.19;100.00;103056.09;5119429;28;20031;-64
2022/01/17 00:28:07;;;;;;;98.80;44.70;;;;;;;5.18;100.00;103056.03;5119462;28;20415;-64
2022/01/17 00:30:33;;;;;;;89.63;45.08;;;;;;;5.06;100.00;103037.28;5119485;28;20150;-65
2022/01/17 00:32:58;;;;;;;93.55;43.15;;;;;;;5.14;100.00;103052.41;5119329;28;20446;-63
2022/01/17 00:35:24;;;;;;;90.28;43.03;;;;;;;5.18;100.00;103054.31;5119175;28;20152;-63
2022/01/17 00:37:50;;;;;;;93.68;42.55;;;;;;;5.17;100.00;103047.34;5119441;28;20066;-64
2022/01/17 00:40:15;;;;;;;89.75;41.55;;;;;;;5.16;100.00;103034.31;5119052;28;20028;-63
2022/01/17 00:42:42;;;;;;;96.05;42.55;;;;;;;5.14;100.00;103031.66;5119547;28;20043;-64
2022/01/17 00:45:09;;;;;;;88.63;41.33;;;;;;;5.17;100.00;103041.28;5118838;28;20039;-65
2022/01/17 00:47:35;;;;;;;84.45;40.78;;;;;;;5.14;100.00;103039.44;5118959;28;20031;-63
2022/01/17 00:50:00;;;;;;;88.70;40.78;;;;;;;5.12;100.00;103043.66;5119156;28;20338;-65
2022/01/17 00:52:26;;;;;;;85.75;39.63;;;;;;;5.15;100.00;103053.28;5118545;28;20032;-64
2022/01/17 00:54:51;;;;;;;85.43;39.53;;;;;;;5.16;100.00;103057.66;5118874;28;20024;-63
2022/01/17 00:57:17;;;;;;;84.47;40.13;;;;;;;5.15;100.00;103054.19;5118762;28;20339;-65
2022/01/17 00:59:42;;;;;;;88.53;39.78;;;;;;;5.12;100.00;103053.16;5118851;28;20035;-63
2022/01/17 01:02:08;;;;;;;82.97;39.53;;;;;;;5.16;100.00;103060.25;5118622;28;20034;-64
2022/01/17 01:04:33;;;;;;;86.25;38.90;;;;;;;5.15;100.00;103059.38;5118565;28;20027;-65
2022/01/17 01:06:58;;;;;;;86.00;39.72;;;;;;;5.14;100.00;103048.91;5118314;28;20032;-63
2022/01/17 01:09:26;;;;;;;84.22;38.35;;;;;;;5.14;100.00;103052.41;5118765;28;20125;-63
2022/01/17 01:11:52;;;;;;;82.63;38.55;;;;;;;5.13;100.00;103060.13;5118584;28;20104;-64
2022/01/17 01:14:17;;;;;;;81.32;37.17;;;;;;;5.15;100.00;103071.47;5118409;28;20055;-64
2022/01/17 01:16:43;;;;;;;78.68;37.38;;;;;;;5.18;100.00;103067.31;5118368;28;20035;-64
2022/01/17 01:19:26;;;;;;;75.38;35.42;;;;;;;5.09;100.00;103059.09;5118371;28;20062;-63
2022/01/17 01:29:58;;;;;;;67.55;35.88;;;;;;;5.16;100.00;103068.94;5118109;28;20061;-62
2022/01/17 01:32:28;;;;;;;71.28;34.80;;;;;;;5.17;100.00;103068.13;5117955;28;20036;-62
2022/01/17 01:34:57;;;;;;;74.75;35.13;;;;;;;5.15;100.00;103050.69;5117732;28;20423;-63
2022/01/17 01:37:22;;;;;;;70.88;34.17;;;;;;;5.17;100.00;103052.53;5118291;28;20027;-63
2022/01/17 01:39:50;;;;;;;69.45;33.70;;;;;;;5.18;100.00;103054.31;5117996;28;20031;-64
2022/01/17 01:42:18;;;;;;;67.45;33.35;;;;;;;5.09;100.00;103038.34;5118012;28;20074;-64
2022/01/17 01:44:44;;;;;;;70.13;32.13;;;;;;;5.06;100.00;103051.16;5117823;28;20096;-63
2022/01/17 01:47:10;;;;;;;64.38;31.15;;;;;;;4.93;100.00;103061.81;5117766;28;20419;-64
2022/01/17 01:49:35;;;;;;;64.93;31.52;;;;;;;4.82;100.00;103074.31;5117606;28;20038;-65
2022/01/17 01:52:01;;;;;;;60.65;29.55;;;;;;;4.74;100.00;103079.94;5117945;28;20064;-63
2022/01/17 01:54:26;;;;;;;62.63;29.77;;;;;;;4.65;100.00;103089.91;5117428;28;20024;-64
2022/01/17 01:56:51;;;;;;;65.72;29.25;;;;;;;4.60;100.00;103096.59;5117992;28;20024;-62
2022/01/17 01:59:20;;;;;;;60.33;28.60;;;;;;;4.54;100.00;103079.91;5117716;28;20374;-63
2022/01/17 02:01:46;;;;;;;61.53;29.10;;;;;;;4.47;100.00;103067.50;5117455;28;20032;-62
2022/01/17 02:04:13;;;;;;;66.05;28.60;;;;;;;4.37;100.00;103075.63;5117288;28;20035;-64
2022/01/17 02:06:39;;;;;;;57.60;27.83;;;;;;;4.33;100.00;103076.28;5117115;28;20445;-65
2022/01/17 02:09:05;;;;;;;54.88;26.73;;;;;;;4.25;100.00;103074.16;5117418;28;20036;-64
2022/01/17 02:11:31;;;;;;;56.67;26.95;;;;;;;4.18;100.00;103089.41;5117310;28;20051;-64
2022/01/17 02:13:56;;;;;;;59.28;28.08;;;;;;;4.14;100.00;103092.69;5117190;28;20419;-63
2022/01/17 02:16:24;;;;;;;62.92;27.05;;;;;;;4.09;100.00;103098.44;5117570;28;20088;-63
2022/01/17 02:18:50;;;;;;;58.83;26.40;;;;;;;4.07;100.00;103089.72;5117130;28;20060;-65
2022/01/17 02:23:44;;;;;;;56.10;25.98;;;;;;;3.98;100.00;103092.75;5117604;28;20047;-64
2022/01/17 02:26:09;;;;;;;52.50;26.10;;;;;;;3.91;100.00;103090.66;5117203;28;20032;-64
2022/01/17 02:28:36;;;;;;;61.22;26.77;;;;;;;3.85;100.00;103087.75;5117222;28;20465;-65
2022/01/17 02:31:03;;;;;;;57.53;25.90;;;;;;;3.78;100.00;103076.22;5117062;28;20031;-63
2022/01/17 02:33:29;;;;;;;48.17;24.55;;;;;;;3.75;100.00;103081.25;5116890;28;20027;-64
2022/01/17 02:35:54;;;;;;;58.03;24.98;;;;;;;3.69;100.00;103080.03;5116709;28;20114;-63
2022/01/17 02:38:19;;;;;;;53.08;25.75;;;;;;;3.65;100.00;103080.69;5116755;28;20058;-64
2022/01/17 02:40:44;;;;;;;56.03;25.17;;;;;;;3.65;100.00;103088.44;5116047;28;20112;-63
2022/01/17 02:43:10;;;;;;;57.45;25.48;;;;;;;3.65;100.00;103094.50;5116359;28;20030;-63
2022/01/17 02:46:24;;;;;;;58.75;25.63;;;;;;;3.61;100.00;103083.94;5117387;28;20036;-63
2022/01/17 02:48:24;;;;;;;60.63;26.63;;;;;;;3.62;100.00;103084.03;5116365;28;20439;-62
2022/01/17 02:50:50;;;;;;;61.90;27.27;;;;;;;3.61;100.00;103084.84;5116365;28;20107;-63
2022/01/17 02:53:16;;;;;;;58.17;24.67;;;;;;;3.54;100.00;103087.91;5116665;28;20055;-64
2022/01/17 02:55:56;;;;;;;59.55;27.25;;;;;;;3.49;100.00;103079.91;5116618;28;20070;-64
2022/01/17 02:58:24;;;;;;;56.05;25.40;;;;;;;3.42;100.00;103090.78;5116632;28;20035;-64
2022/01/17 03:00:53;;;;;;;61.10;25.95;;;;;;;3.43;100.00;103087.38;5116345;28;20036;-65
2022/01/17 03:03:23;;;;;;;60.95;26.23;;;;;;;3.42;100.00;103090.78;5116550;28;20039;-64
2022/01/17 03:05:49;;;;;;;56.22;25.10;;;;;;;3.31;100.00;103080.66;5116235;28;20031;-64
2022/01/17 03:08:16;;;;;;;64.22;26.50;;;;;;;3.33;100.00;103071.28;5116830;28;20110;-65
2022/01/17 03:10:43;;;;;;;64.07;27.92;;;;;;;3.28;100.00;103075.34;5116492;28;20024;-67
2022/01/17 03:13:18;;;;;;;55.10;26.00;;;;;;;3.25;100.00;103070.91;5115904;28;20023;-65
2022/01/17 03:15:58;;;;;;;70.82;26.80;;;;;;;3.26;100.00;103069.19;5115833;28;20052;-64
2022/01/17 03:18:29;;;;;;;58.10;26.45;;;;;;;3.24;100.00;103065.63;5116138;28;20039;-64
2022/01/17 03:20:55;;;;;;;55.83;26.85;;;;;;;3.22;100.00;103075.00;5116335;28;20027;-63
2022/01/17 03:23:21;;;;;;;54.85;25.50;;;;;;;3.17;100.00;103074.75;5116417;28;20031;-64
2022/01/17 03:25:46;;;;;;;52.53;25.40;;;;;;;3.12;100.00;103071.94;5116076;28;20442;-63
2022/01/17 03:28:12;;;;;;;56.95;26.50;;;;;;;3.12;100.00;103065.88;5116261;28;20059;-62
2022/01/17 03:30:37;;;;;;;69.50;28.88;;;;;;;3.12;100.00;103066.75;5116001;28;20063;-65
2022/01/17 03:33:07;;;;;;;66.88;28.75;;;;;;;3.13;100.00;103058.19;5115984;28;20034;-64
2022/01/17 03:35:33;;;;;;;72.70;28.90;;;;;;;3.22;100.00;103068.13;5116203;28;20035;-64
2022/01/17 03:37:59;;;;;;;68.97;29.48;;;;;;;3.23;100.00;103075.09;5115728;28;20030;-65
2022/01/17 03:40:24;;;;;;;66.72;28.13;;;;;;;3.18;100.00;103068.78;5115753;28;20084;-63
2022/01/17 03:42:50;;;;;;;63.95;28.27;;;;;;;3.14;100.00;103072.91;5115309;28;20032;-63
2022/01/17 03:45:15;;;;;;;69.43;28.73;;;;;;;3.17;100.00;103085.09;5115588;28;20042;-66
2022/01/17 03:47:44;;;;;;;71.90;29.80;;;;;;;3.24;100.00;103083.75;5115919;28;20042;-64
2022/01/17 03:50:14;;;;;;;68.80;29.88;;;;;;;3.30;100.00;103084.03;5115848;28;20442;-63
2022/01/17 03:52:40;;;;;;;71.88;28.70;;;;;;;3.37;100.00;103091.31;5115055;28;20049;-66
2022/01/17 03:55:07;;;;;;;68.43;29.40;;;;;;;3.42;100.00;103087.28;5115129;28;20502;-65
2022/01/17 03:57:32;;;;;;;66.38;29.35;;;;;;;3.42;100.00;103082.13;5115492;28;20137;-65
2022/01/17 03:59:57;;;;;;;63.20;27.55;;;;;;;3.43;100.00;103081.31;5115796;28;20179;-64
2022/01/17 04:02:23;;;;;;;64.50;26.98;;;;;;;3.37;100.00;103073.22;5115697;28;20350;-64
2022/01/17 04:04:48;;;;;;;58.42;25.38;;;;;;;3.31;100.00;103071.19;5115210;28;20028;-65
2022/01/17 04:07:13;;;;;;;54.00;25.15;;;;;;;3.34;100.00;103079.13;5115189;28;20316;-64
2022/01/17 04:09:39;;;;;;;58.28;24.50;;;;;;;3.30;100.00;103077.16;5115197;28;20027;-65
2022/01/17 04:12:04;;;;;;;60.28;24.35;;;;;;;3.30;100.00;103074.59;5115388;28;20024;-63
2022/01/17 04:14:34;;;;;;;48.38;22.88;;;;;;;3.30;100.00;103084.94;5115382;28;20354;-65
2022/01/17 04:17:01;;;;;;;45.83;21.45;;;;;;;3.23;100.00;103090.63;5115410;28;20058;-63
2022/01/17 04:19:26;;;;;;;53.25;20.73;;;;;;;3.19;100.00;103085.19;5115330;28;20438;-64
2022/01/17 04:21:52;;;;;;;48.78;20.52;;;;;;;3.18;100.00;103089.47;5115139;28;20503;-65
2022/01/17 04:24:17;;;;;;;46.22;20.48;;;;;;;3.13;100.00;103085.75;5115152;28;20032;-65
2022/01/17 04:26:42;;;;;;;49.45;19.83;;;;;;;3.13;100.00;103089.22;5115220;28;20059;-64
2022/01/17 04:29:08;;;;;;;52.00;20.00;;;;;;;3.15;100.00;103090.19;5114983;28;20031;-67
2022/01/17 04:31:33;;;;;;;45.25;20.30;;;;;;;3.13;100.00;103096.97;5114952;28;20114;-65
2022/01/17 04:33:59;;;;;;;45.08;20.17;;;;;;;3.06;100.00;103094.00;5115355;28;20054;-67
2022/01/17 04:36:25;;;;;;;38.92;19.33;;;;;;;3.13;100.00;103102.16;5115066;28;20030;-61
2022/01/17 04:38:50;;;;;;;46.47;20.05;;;;;;;3.17;100.00;103104.91;5115240;28;20066;-63
2022/01/17 04:41:18;;;;;;;49.05;20.17;;;;;;;3.13;100.00;103102.16;5115126;28;20059;-64
2022/01/17 04:46:29;;;;;;;45.13;19.63;;;;;;;3.04;100.00;103099.09;5083171;28;20050;-65
2022/01/17 04:48:54;;;;;;;48.03;20.70;;;;;;;2.98;100.00;103093.59;5115197;28;20110;-65
2022/01/17 04:51:20;;;;;;;44.20;19.88;;;;;;;2.97;100.00;103091.81;5114793;28;20032;-64
2022/01/17 04:54:01;;;;;;;44.10;20.20;;;;;;;2.96;100.00;103084.84;5114986;28;20088;-64
2022/01/17 04:56:26;;;;;;;57.15;21.55;;;;;;;2.99;100.00;103090.19;5115233;28;20032;-64
2022/01/17 04:58:51;;;;;;;48.50;21.20;;;;;;;2.92;100.00;103087.22;5115032;28;20032;-64
2022/01/17 05:01:17;;;;;;;50.17;21.15;;;;;;;2.91;100.00;103086.31;5114948;28;20031;-68
2022/01/17 05:03:42;;;;;;;50.05;21.35;;;;;;;2.94;100.00;103102.00;5114923;28;20382;-64
2022/01/17 05:06:07;;;;;;;46.33;21.00;;;;;;;2.93;100.00;103107.09;5118468;28;20453;-65
2022/01/17 05:08:32;;;;;;;50.63;21.38;;;;;;;2.89;100.00;103103.44;5118765;28;20031;-64
2022/01/17 05:10:58;;;;;;;43.85;22.08;;;;;;;2.83;100.00;103090.19;5118731;28;20116;-65
2022/01/17 05:13:31;;;;;;;46.58;20.85;;;;;;;2.93;100.00;103108.00;5118408;28;20342;-63
2022/01/17 05:16:10;;;;;;;46.38;20.58;;;;;;;2.86;100.00;103121.38;5118837;28;20039;-65
2022/01/17 05:21:01;;;;;;;49.25;22.67;;;;;;;2.92;100.00;103141.53;5118420;28;20051;-64
2022/01/17 05:23:27;;;;;;;44.45;20.75;;;;;;;2.79;100.00;103112.38;5118376;28;20031;-63
2022/01/17 05:25:52;;;;;;;47.70;22.15;;;;;;;2.90;100.00;103131.09;5118460;28;20419;-64
2022/01/17 05:28:17;;;;;;;46.55;21.90;;;;;;;2.86;100.00;103133.41;5118544;28;20031;-64
2022/01/17 05:30:43;;;;;;;43.30;20.27;;;;;;;2.82;100.00;103126.28;5118349;28;20027;-64
2022/01/17 05:33:08;;;;;;;46.90;21.10;;;;;;;2.76;100.00;103135.50;5118195;28;20039;-65
2022/01/17 05:35:33;;;;;;;42.83;20.73;;;;;;;2.73;100.00;103137.03;5118180;28;20177;-66
2022/01/17 05:37:59;;;;;;;46.88;20.27;;;;;;;2.64;100.00;103133.94;5117993;28;20032;-64
2022/01/17 05:40:24;;;;;;;44.42;21.23;;;;;;;2.70;100.00;103131.69;5117519;28;20110;-66
2022/01/17 05:42:50;;;;;;;47.35;20.77;;;;;;;2.69;100.00;103137.66;5109499;28;20024;-65
2022/01/17 05:45:16;;;;;;;44.95;20.35;;;;;;;2.69;100.00;103150.59;5097170;28;20039;-66
2022/01/17 05:47:42;;;;;;;44.70;21.00;;;;;;;2.66;100.00;103160.75;5097068;28;20024;-66
2022/01/17 05:50:08;;;;;;;46.40;21.83;;;;;;;2.72;100.00;103145.59;5096688;28;20400;-65
2022/01/17 05:52:34;;;;;;;44.75;21.95;;;;;;;2.63;100.00;103140.78;5097037;28;20103;-64
2022/01/17 05:55:00;;;;;;;55.42;24.70;;;;;;;2.67;100.00;103137.56;5096713;28;20447;-64
2022/01/17 05:57:26;;;;;;;42.85;21.73;;;;;;;2.62;100.00;103141.59;5097133;28;20027;-63
2022/01/17 05:59:52;;;;;;;50.63;23.60;;;;;;;2.61;100.00;103151.84;5096993;28;20032;-63
2022/01/17 06:02:18;;;;;;;60.22;25.90;;;;;;;2.54;100.00;103134.22;5096160;28;20032;-66
2022/01/17 06:04:43;;;;;;;65.88;28.27;;;;;;;2.66;100.00;103160.75;5096895;28;20068;-65
2022/01/17 06:07:08;;;;;;;57.65;26.55;;;;;;;2.65;100.00;103146.94;5096481;28;20059;-64
2022/01/17 06:09:34;;;;;;;51.47;25.70;;;;;;;2.65;100.00;103144.34;5096825;28;20032;-64
2022/01/17 06:12:00;;;;;;;51.55;24.55;;;;;;;2.59;100.00;103151.78;5096798;28;20043;-63
2022/01/17 06:14:25;;;;;;;60.42;26.50;;;;;;;2.59;100.00;103154.38;5096398;28;20048;-63
2022/01/17 06:16:51;;;;;;;62.70;27.40;;;;;;;2.60;100.00;103168.19;5096351;28;20020;-63
2022/01/17 06:19:17;;;;;;;54.72;26.38;;;;;;;2.54;100.00;103163.56;5096170;28;20443;-65
2022/01/17 06:21:44;;;;;;;56.78;27.42;;;;;;;2.49;100.00;103157.22;5096169;28;20028;-65
2022/01/17 06:24:09;;;;;;;64.60;27.77;;;;;;;2.49;100.00;103153.75;5096297;28;20028;-65
2022/01/17 06:26:39;;;;;;;61.08;29.23;;;;;;;2.52;100.00;103169.44;5095846;28;20032;-65
2022/01/17 06:29:06;;;;;;;59.95;28.35;;;;;;;2.48;100.00;103160.59;5096022;28;20359;-64
2022/01/17 06:31:32;;;;;;;64.43;28.55;;;;;;;2.47;100.00;103157.94;5096183;28;20085;-65
2022/01/17 06:33:57;;;;;;;60.65;28.85;;;;;;;2.49;100.00;103156.34;5096010;28;20032;-64
2022/01/17 06:36:23;;;;;;;67.30;30.13;;;;;;;2.46;100.00;103157.03;5095857;28;20123;-63
2022/01/17 06:38:49;;;;;;;65.82;31.45;;;;;;;2.49;100.00;103166.66;5095909;28;20051;-63
2022/01/17 06:41:18;;;;;;;68.00;31.02;;;;;;;2.43;100.00;103157.75;5096196;28;20028;-63
2022/01/17 06:43:44;;;;;;;77.07;33.17;;;;;;;2.60;100.00;103184.56;5095712;28;20523;-66
2022/01/17 06:46:09;;;;;;;71.28;31.38;;;;;;;2.60;100.00;103192.31;5095778;28;20032;-61
2022/01/17 06:48:35;;;;;;;70.20;29.92;;;;;;;2.49;100.00;103164.09;5095741;28;20081;-65
2022/01/17 06:51:00;;;;;;;81.68;33.92;;;;;;;2.66;100.00;103179.75;5095960;28;20020;-66
2022/01/17 06:53:27;;;;;;;73.60;33.28;;;;;;;2.68;100.00;103178.13;5095737;28;20454;-65
2022/01/17 06:55:53;;;;;;;77.25;34.10;;;;;;;2.78;100.00;103185.59;5096148;28;20035;-64
2022/01/17 06:58:19;;;;;;;69.55;32.58;;;;;;;2.75;100.00;103195.78;5095449;28;20028;-64
2022/01/17 07:00:44;;;;;;;83.07;35.05;;;;;;;2.77;100.00;103212.25;5095435;28;20050;-64
2022/01/17 07:03:10;;;;;;;79.03;33.63;;;;;;;2.69;100.00;103226.44;5095612;28;20089;-64
2022/01/17 07:05:35;;;;;;;72.47;32.85;;;;;;;2.65;100.00;103206.38;5095401;28;20118;-64
2022/01/17 07:08:00;;;;;;;80.13;33.58;;;;;;;2.69;100.00;103222.97;5095555;28;20035;-64
2022/01/17 07:10:28;;;;;;;73.22;33.70;;;;;;;2.72;100.00;103241.25;5094973;28;20404;-64
2022/01/17 07:12:54;;;;;;;74.88;33.72;;;;;;;2.75;100.00;103229.41;5095150;28;20431;-65
2022/01/17 07:15:19;;;;;;;77.68;35.20;;;;;;;2.69;100.00;103212.63;5095102;28;20359;-64
2022/01/17 07:17:45;;;;;;;73.03;33.85;;;;;;;2.74;100.00;103203.44;5095389;28;20047;-64
2022/01/17 07:20:11;;;;;;;74.88;34.42;;;;;;;2.72;100.00;103194.72;5095310;28;20453;-64
2022/01/17 07:22:36;;;;;;;75.05;33.22;;;;;;;2.65;100.00;103182.22;5095402;28;20036;-64
2022/01/17 07:25:01;;;;;;;78.95;33.47;;;;;;;2.70;100.00;103175.63;5094747;28;20028;-64
2022/01/17 07:27:27;;;;;;;72.60;33.75;;;;;;;2.68;100.00;103170.38;5094721;28;20035;-64
2022/01/17 07:29:52;;;;;;;77.50;33.95;;;;;;;2.71;100.00;103154.16;5094825;28;20027;-64
2022/01/17 07:32:18;;;;;;;74.32;33.10;;;;;;;2.76;100.00;103157.91;5095057;28;20040;-64
2022/01/17 07:34:43;;;;;;;75.88;33.92;;;;;;;2.78;100.00;103187.28;5095039;28;20027;-64
2022/01/17 07:37:08;;;;;;;70.78;32.97;;;;;;;2.74;100.00;103194.00;5094696;28;20028;-64
2022/01/17 07:39:33;;;;;;;76.60;33.28;;;;;;;2.67;100.00;103181.53;5095206;28;20032;-64
2022/01/17 07:41:59;;;;;;;76.15;32.83;;;;;;;2.72;100.00;103195.59;5094885;28;20032;-65
2022/01/17 07:44:26;;;;;;;81.28;32.40;;;;;;;2.77;100.00;103203.63;5094798;28;20032;-64
2022/01/17 07:46:57;;;;;;;76.30;32.03;;;;;;;2.74;100.00;103195.69;5094640;28;20056;-64
2022/01/17 07:49:23;;;;;;;69.10;31.10;;;;;;;2.79;100.00;103200.28;5095229;28;20030;-64
2022/01/17 07:52:01;;;;;;;70.78;32.58;;;;;;;2.79;100.00;103212.31;5095022;28;20110;-65
2022/01/17 07:54:29;;;;;;;88.70;34.17;;;;;;;2.83;100.00;103214.28;5094792;28;20032;-67
2022/01/17 07:56:55;;;;;;;73.82;33.50;;;;;;;2.82;100.00;103224.53;5094488;28;20051;-64
2022/01/17 07:59:21;;;;;;;70.63;32.03;;;;;;;2.74;100.00;103224.13;5094287;28;20040;-65
2022/01/17 08:01:46;;;;;;;75.40;34.28;;;;;;;2.74;100.00;103219.84;5094635;28;20028;-65
2022/01/17 08:04:12;;;;;;;73.82;32.72;;;;;;;2.83;100.00;103236.66;5094271;28;20028;-66
2022/01/17 08:06:38;;;;;;;75.72;32.50;;;;;;;2.84;100.00;103248.78;5094316;28;20443;-66
2022/01/17 08:09:11;;;;;;;78.75;32.92;;;;;;;2.86;100.00;103248.09;5094327;28;20028;-65
2022/01/17 08:11:36;;;;;;;77.32;34.03;;;;;;;2.88;100.00;103245.59;5094037;28;20432;-64
2022/01/17 08:14:02;;;;;;;82.97;33.53;;;;;;;2.91;100.00;103262.16;5093987;28;20165;-64
2022/01/17 08:16:27;;;;;;;85.13;34.55;;;;;;;2.95;100.00;103263.22;5094365;28;20054;-65
2022/01/17 08:18:52;;;;;;;76.50;33.90;;;;;;;2.92;100.00;103252.72;5094442;28;20036;-67
2022/01/17 08:21:19;;;;;;;75.32;32.63;;;;;;;2.97;100.00;103243.50;5094155;28;20036;-64
2022/01/17 08:23:44;;;;;;;90.90;36.92;;;;;;;3.03;100.00;103241.28;5094405;28;20057;-67
2022/01/17 08:26:10;;;;;;;81.25;36.40;;;;;;;3.05;100.00;103240.56;5094301;28;20351;-65
2022/01/17 08:28:35;;;;;;;81.10;36.58;;;;;;;3.14;100.00;103253.09;5094314;28;20031;-64
2022/01/17 08:31:00;;;;;;;88.53;36.50;;;;;;;3.28;100.00;103244.41;5094653;28;20359;-66
2022/01/17 08:33:25;;;;;;;89.20;38.20;;;;;;;3.42;100.00;103242.56;5109755;28;20026;-64
2022/01/17 08:35:51;;;;;;;82.55;35.83;;;;;;;3.50;100.00;103244.75;5094363;28;20101;-65
2022/01/17 08:38:16;;;;;;;87.28;35.78;;;;;;;3.64;100.00;103248.06;5094263;28;20025;-64
2022/01/17 08:40:41;;;;;;;81.68;34.30;;;;;;;3.71;100.00;103252.78;5096762;28;20036;-64
2022/01/17 08:43:07;;;;;;;75.93;34.42;;;;;;;3.74;100.00;103242.59;5098160;28;20032;-66
2022/01/17 08:45:33;;;;;;;72.63;33.45;;;;;;;3.80;100.00;103234.25;5098054;28;20064;-64
2022/01/17 08:47:59;;;;;;;70.70;34.03;;;;;;;3.90;100.00;103233.03;5098194;28;20031;-64
2022/01/17 08:50:24;;;;;;;75.72;32.50;;;;;;;3.89;100.00;103221.78;5098114;28;20032;-64
2022/01/17 08:52:50;;;;;;;72.80;31.70;;;;;;;3.94;100.00;103217.75;5097780;28;20032;-65
2022/01/17 08:55:16;;;;;;;66.70;30.33;;;;;;;4.00;100.00;103225.81;5097786;28;20028;-65
2022/01/17 08:57:42;;;;;;;61.80;30.00;;;;;;;4.11;100.00;103247.09;5098087;28;20040;-64
2022/01/17 09:00:11;;;;;;;67.30;29.15;;;;;;;4.20;100.00;103248.44;5097789;28;20043;-66
2022/01/17 09:02:37;;;;;;;66.32;29.27;;;;;;;4.23;100.00;103249.41;5098001;28;20119;-66
2022/01/17 09:05:03;;;;;;;55.88;27.90;;;;;;;4.26;100.00;103250.47;5098023;28;20515;-65
2022/01/17 09:07:28;;;;;;;65.63;27.92;;;;;;;4.30;100.00;103251.53;5097314;28;20028;-65
2022/01/17 09:09:54;;;;;;;63.88;26.88;;;;;;;4.37;100.00;103251.91;5079553;28;20024;-64
2022/01/17 09:12:20;;;;;;;56.58;25.90;;;;;;;4.42;100.00;103263.41;5097326;28;20358;-65
2022/01/17 09:14:45;;;;;;;57.03;24.48;;;;;;;4.42;100.00;103250.44;5097512;28;20056;-64
2022/01/17 09:17:11;;;;;;;55.75;24.63;;;;;;;4.49;100.00;103260.31;5097453;28;20048;-65
2022/01/17 09:19:39;;;;;;;55.53;24.80;;;;;;;4.52;100.00;103270.81;5097302;28;20032;-65
2022/01/17 09:22:06;;;;;;;49.25;22.55;;;;;;;4.55;100.00;103283.94;5097223;28;20028;-65
2022/01/17 09:24:33;;;;;;;53.13;24.05;;;;;;;4.52;100.00;103276.00;5096758;28;20489;-66
2022/01/17 09:26:59;;;;;;;53.95;22.23;;;;;;;4.63;100.00;103286.91;5097510;28;20028;-64
2022/01/17 09:29:24;;;;;;;50.65;21.58;;;;;;;4.67;100.00;103286.28;5097379;28;20035;-64
2022/01/17 09:31:49;;;;;;;55.45;20.98;;;;;;;4.74;100.00;103296.13;5097322;28;20164;-63
2022/01/17 09:34:15;;;;;;;51.72;20.30;;;;;;;4.88;100.00;103308.06;5097328;28;20021;-65
2022/01/17 09:36:40;;;;;;;42.53;19.40;;;;;;;4.92;100.00;103293.53;5097362;28;20358;-64
2022/01/17 09:39:07;;;;;;;44.58;18.88;;;;;;;5.04;100.00;103304.50;5096979;28;20358;-66
2022/01/17 09:41:32;;;;;;;45.47;19.85;;;;;;;5.06;100.00;103297.69;5097589;28;20040;-65
2022/01/17 09:43:58;;;;;;;42.60;18.58;;;;;;;5.08;100.00;103292.56;5097014;28;20036;-64
2022/01/17 09:46:27;;;;;;;42.38;17.40;;;;;;;5.11;100.00;103298.81;5097355;28;20028;-65
2022/01/17 09:49:00;;;;;;;40.65;17.23;;;;;;;5.15;100.00;103310.22;5096687;28;20027;-66
2022/01/17 09:52:14;;;;;;;39.90;16.33;;;;;;;5.18;100.00;103312.97;5096417;28;20028;-66
2022/01/17 09:54:20;;;;;;;43.58;15.38;;;;;;;5.21;100.00;103320.88;5088512;28;20093;-65
2022/01/17 09:56:50;;;;;;;39.70;15.88;;;;;;;5.24;100.00;103332.31;5096957;28;20067;-65
2022/01/17 09:59:15;;;;;;;39.53;15.52;;;;;;;5.21;100.00;103316.59;5097078;28;20058;-66
2022/01/17 10:01:41;;;;;;;33.25;13.95;;;;;;;5.30;100.00;103338.63;5096613;28;20067;-64
2022/01/17 10:04:07;;;;;;;35.08;14.40;;;;;;;5.25;100.00;103339.28;5096394;28;20028;-64
2022/01/17 10:06:35;;;;;;;41.85;15.07;;;;;;;5.27;100.00;103325.50;5096818;28;20031;-65
2022/01/17 10:09:21;;;;;;;35.13;14.02;;;;;;;5.34;100.00;103340.56;5096852;28;20401;-65
2022/01/17 10:12:10;;;;;;;36.08;13.70;;;;;;;5.35;100.00;103343.25;5096225;28;20032;-65
2022/01/17 10:14:42;;;;;;;33.88;13.63;;;;;;;5.35;100.00;103338.03;5095983;28;20387;-69
2022/01/17 10:17:09;;;;;;;;;;;;;;;5.46;100.00;103344.63;5096927;28;20039;-67
2022/01/17 10:19:35;;;;;;;38.28;13.52;;;;;;;5.35;100.00;103330.25;5096149;28;20351;-66
2022/01/17 10:22:03;;;;;;;35.40;12.35;;;;;;;5.42;100.00;103334.91;5096619;28;20043;-66
2022/01/17 10:34:58;;;;;;;31.27;11.52;;;;;;;5.48;100.00;103349.91;5096079;28;20482;-65
2022/01/17 10:37:27;;;;;;;39.45;12.05;;;;;;;5.54;100.00;103358.00;5095680;28;20038;-67
2022/01/17 10:39:59;;;;;;;37.55;10.90;;;;;;;5.46;100.00;103341.13;5096228;28;20101;-65
2022/01/17 10:42:41;;;;;;;33.25;10.60;;;;;;;5.53;100.00;103348.41;5096270;28;20028;-66
2022/01/17 10:45:14;;;;;;;34.08;11.00;;;;;;;5.59;100.00;103354.78;5071702;28;20028;-67
2022/01/17 10:47:43;;;;;;;36.13;10.55;;;;;;;5.54;100.00;103340.66;5096154;28;20038;-66
2022/01/17 10:50:15;;;;;;;28.77;9.93;;;;;;;5.60;100.00;103353.94;5095754;28;20530;-64
2022/01/17 10:52:43;;;;;;;32.38;10.55;;;;;;;5.60;100.00;103345.28;5095401;28;20023;-65
2022/01/17 10:55:20;;;;;;;34.88;11.50;;;;;;;5.68;100.00;103369.91;5095537;28;20020;-66
2022/01/17 10:57:48;;;;;;;38.05;10.80;;;;;;;5.68;100.00;103377.72;5095536;28;20059;-64
2022/01/17 11:00:22;;;;;;;32.70;10.15;;;;;;;5.71;100.00;103382.16;5095601;28;20131;-66
2022/01/17 11:02:59;;;;;;;29.08;9.50;;;;;;;5.74;100.00;103383.16;5094817;28;20039;-65
2022/01/17 11:05:28;;;;;;;30.75;10.07;;;;;;;5.72;100.00;103387.41;5095354;28;20093;-66
2022/01/17 11:07:56;;;;;;;24.55;9.45;;;;;;;5.71;100.00;103371.78;5095192;28;20028;-66
2022/01/17 11:10:25;;;;;;;37.05;9.77;;;;;;;5.77;100.00;103387.63;5095172;28;20027;-66
2022/01/17 11:12:52;;;;;;;30.90;9.32;;;;;;;5.81;100.00;103397.34;5095125;28;20531;-66
2022/01/17 11:15:19;;;;;;;26.98;8.85;;;;;;;5.83;100.00;103391.41;5095371;28;20047;-66
2022/01/17 11:17:51;;;;;;;28.15;9.45;;;;;;;5.88;100.00;103383.84;5095271;28;20461;-65
2022/01/17 11:20:17;;;;;;;35.35;9.48;;;;;;;5.89;100.00;103381.31;5095193;28;20035;-66
2022/01/17 11:22:45;;;;;;;31.15;9.48;;;;;;;5.96;100.00;103387.69;5095087;28;20024;-67
2022/01/17 11:25:19;;;;;;;31.92;8.88;;;;;;;6.01;100.00;103370.63;5095370;28;20016;-65
2022/01/17 11:27:44;;;;;;;29.63;8.10;;;;;;;6.04;100.00;103385.47;5094939;28;20104;-67
2022/01/17 11:30:10;;;;;;;33.40;9.07;;;;;;;6.07;100.00;103365.69;5095068;28;20016;-67
2022/01/17 11:32:36;;;;;;;33.97;8.93;;;;;;;6.09;100.00;103350.16;5094798;28;20032;-66
2022/01/17 11:35:03;;;;;;;28.58;8.63;;;;;;;6.16;100.00;103360.03;5095017;28;20032;-65
2022/01/17 11:37:38;;;;;;;37.70;8.80;;;;;;;6.16;100.00;103347.91;5094895;28;20040;-65